• Join FlightAware (Why Join?)
  • Login
  • US Flag 
06:35PM EDT


 

Airport Tracker/Info


-or-


 

Live Flight TrackerFlight Track Log ✈ N600TR ✈ 12-Aug-2013 ✈ KATL - KBHM

Flight Track Log - Related Links

Times and Time Zones

All times are in EDT time to prevent confusion due to time zone crossing. See the N600TR flight status page for this flight to view local times or setup timezone preferences in your user account.

Time Position Orientation Groundspeed Altitude Reporting Facility
EDT Latitude Longitude Course Direction KTS MPH feet Rate Location/Type
09:01AM 33.6500 -84.4500 280° West 147 169 2,200  Level Atlanta TRACON
09:02AM 33.6667 -84.5333 284° West 249 287 4,300 2,040 Climbing Atlanta TRACON
09:03AM 33.6833 -84.6000 287° West 272 313 6,300 2,340 Climbing Atlanta TRACON
09:04AM 33.7000 -84.7000 281° West 280 322 8,800 2,100 Climbing Atlanta TRACON
09:05AM 33.6963 -84.9740 280° West  Level FlightAware Approximate
09:06AM 33.7122 -85.0849 280° West  Level FlightAware Approximate
09:06AM 33.7178 -84.9578 275° West 337 388 13,500  Level Atlanta Center
09:07AM 33.7253 -85.0728 275° West 343 395 15,500 1,920 Climbing Atlanta Center
09:08AM 33.7222 -85.1903 268° West 355 409 17,400 1,200 Climbing Atlanta Center
09:09AM 33.7022 -85.3147 259° West 373 429 18,000 300 Climbing Atlanta Center
09:10AM 33.6839 -85.4517 261° West 406 467 18,000 -660 Level Atlanta Center
09:11AM 33.6800 -85.5939 268° West 432 497 16,700 -1,440 Descending Atlanta Center
09:12AM 33.6847 -85.7214 273° West 388 447 15,200 -1,500 Descending Atlanta Center
09:13AM 33.6936 -85.8364 275° West 373 429 13,800 -1,620 Descending Atlanta Center
09:14AM 33.7000 -85.9564 274° West 379 436 12,300 -1,560 Descending Atlanta Center
09:15AM 33.7022 -86.0739 271° West 381 438 11,000 -1,020 Descending Atlanta Center
09:16AM 33.7064 -86.1964 272° West 350 403 10,100 -1,200 Descending Atlanta Center
09:17AM 33.7028 -86.2936 267° West 270 311 8,400 -1,740 Descending Atlanta Center
09:18AM 33.6803 -86.3778 252° West 269 310 6,700 -1,680 Descending Atlanta Center
09:19AM 33.6597 -86.4647 254° West 267 307 5,000 -1,500 Descending Atlanta Center
09:20AM 33.6436 -86.5367 255° West 273 314 3,700 -1,080 Descending Atlanta Center
09:21AM 33.6403 -86.6064 267° West 246 283 2,900 -780 Descending Atlanta Center
09:22AM 33.6117 -86.6728 243° Southwest 163 188 2,100 -780 Descending Atlanta Center
09:23AM 33.5922 -86.7072 236° Southwest 144 166 1,400 -780 Descending Atlanta Center
09:25AM 33.5639 -86.7523 255° West  Level Estimated
09:32AM 33.5639 -86.7523 255° West  Level Estimated
09:33AM 33.5639 -86.7523 255° West  Level Estimated